createdAt,value
2018-07-07T00:02:48.632Z,74.30
2018-07-07T00:05:17.416Z,74.20
2018-07-07T00:07:46.212Z,73.80
2018-07-07T00:10:15.566Z,72.70
2018-07-07T00:12:44.502Z,72.20
2018-07-07T00:15:15.357Z,72.30
2018-07-07T00:17:44.836Z,71.60
2018-07-07T00:20:13.644Z,72.90
2018-07-07T00:22:42.354Z,71.70
2018-07-07T00:25:16.415Z,71.30
2018-07-07T00:27:46.171Z,71.50
2018-07-07T00:30:15.166Z,70.90
2018-07-07T00:32:43.895Z,71.50
2018-07-07T00:35:12.745Z,72.40
2018-07-07T00:37:41.428Z,70.50
2018-07-07T00:40:10.859Z,71.80
2018-07-07T00:45:08.566Z,72.70
2018-07-07T00:47:37.665Z,73.90
2018-07-07T00:50:06.885Z,71.80
2018-07-07T00:52:38.771Z,71.60
2018-07-07T00:55:07.490Z,70.20
2018-07-07T00:57:36.198Z,69.80
2018-07-07T01:00:05.003Z,69.60
2018-07-07T01:02:33.689Z,70.30
2018-07-07T01:05:02.353Z,69.80
2018-07-07T01:07:31.088Z,70.40
2018-07-07T01:09:59.784Z,70.40
2018-07-07T01:12:28.468Z,69.90
2018-07-07T01:14:57.241Z,68.20
2018-07-07T01:17:25.990Z,68.80
2018-07-07T01:19:54.709Z,69.10
2018-07-07T01:22:23.406Z,69.10
2018-07-07T01:24:52.046Z,69.40
2018-07-07T01:27:20.776Z,70.30
2018-07-07T01:29:49.445Z,69.70
2018-07-07T01:32:18.201Z,69.80
2018-07-07T01:34:46.948Z,68.80
2018-07-07T01:37:15.665Z,68.20
2018-07-07T01:39:44.354Z,67.50
2018-07-07T01:42:13.040Z,67.40
2018-07-07T01:44:41.785Z,67.40
2018-07-07T01:47:10.462Z,67.00
2018-07-07T01:49:39.198Z,67.90
2018-07-07T01:52:07.861Z,68.70
2018-07-07T01:54:36.632Z,66.60
2018-07-07T01:57:05.333Z,67.00
2018-07-07T01:59:34.002Z,67.20
2018-07-07T02:02:02.718Z,68.10
2018-07-07T02:04:31.421Z,68.50
2018-07-07T02:07:00.115Z,69.70
2018-07-07T02:09:28.775Z,69.50
2018-07-07T02:11:57.560Z,67.20
2018-07-07T02:14:26.231Z,68.60
2018-07-07T02:16:54.952Z,64.80
2018-07-07T02:19:23.720Z,65.70
2018-07-07T02:21:52.446Z,66.30
2018-07-07T02:24:21.160Z,65.50
2018-07-07T02:26:49.917Z,65.80
2018-07-07T02:29:18.639Z,63.90
2018-07-07T02:31:47.372Z,63.00
2018-07-07T02:34:16.093Z,63.60
2018-07-07T02:36:44.784Z,63.10
2018-07-07T02:39:13.516Z,65.90
2018-07-07T02:41:42.222Z,65.30
2018-07-07T02:44:10.946Z,66.20
2018-07-07T02:46:39.652Z,65.70
2018-07-07T02:49:08.393Z,65.60
2018-07-07T02:51:37.075Z,65.10
2018-07-07T02:54:05.807Z,65.20
2018-07-07T02:56:34.466Z,64.50
2018-07-07T02:59:03.189Z,65.10
2018-07-07T03:01:31.896Z,64.10
2018-07-07T03:04:00.556Z,65.50
2018-07-07T03:06:29.242Z,65.50
2018-07-07T03:08:58.008Z,67.20
2018-07-07T03:11:26.729Z,66.80
2018-07-07T03:13:55.876Z,65.30
2018-07-07T03:16:24.590Z,67.50
2018-07-07T03:18:53.323Z,66.30
2018-07-07T03:21:22.086Z,65.00
2018-07-07T03:23:50.737Z,65.30
2018-07-07T03:26:19.438Z,66.20
2018-07-07T03:28:48.254Z,65.90
2018-07-07T03:31:16.957Z,67.60
2018-07-07T03:33:45.626Z,65.90
2018-07-07T03:36:14.306Z,66.40
2018-07-07T03:38:42.977Z,68.70
2018-07-07T03:41:11.644Z,69.10
2018-07-07T03:46:09.219Z,68.20
2018-07-07T03:48:37.928Z,66.90
2018-07-07T03:51:06.702Z,69.00
2018-07-07T03:53:35.554Z,69.00
2018-07-07T03:56:04.301Z,68.70
2018-07-07T03:58:33.091Z,67.70
2018-07-07T04:01:01.791Z,67.80
2018-07-07T04:03:30.489Z,67.40
2018-07-07T04:05:59.202Z,68.50
2018-07-07T04:08:27.883Z,69.80
2018-07-07T04:10:56.520Z,70.60
2018-07-07T04:13:25.226Z,70.10
2018-07-07T04:15:53.983Z,69.00
2018-07-07T04:18:31.166Z,69.20
2018-07-07T04:21:00.426Z,69.30
2018-07-07T04:23:29.340Z,68.70
2018-07-07T04:25:58.285Z,67.20
2018-07-07T04:28:27.302Z,68.20
2018-07-07T04:30:56.016Z,68.60
2018-07-07T04:33:25.116Z,67.20
2018-07-07T04:35:53.767Z,67.20
2018-07-07T04:38:22.453Z,67.70
2018-07-07T04:40:51.166Z,67.10
2018-07-07T04:45:48.389Z,66.00
2018-07-07T04:48:17.331Z,65.60
2018-07-07T04:50:46.058Z,65.60
2018-07-07T04:53:14.877Z,64.50
2018-07-07T04:55:43.547Z,63.60
2018-07-07T04:58:12.263Z,63.60
2018-07-07T05:00:40.974Z,64.70
2018-07-07T05:03:09.751Z,64.30
2018-07-07T05:05:38.475Z,65.10
2018-07-07T05:08:07.306Z,64.80
2018-07-07T05:10:36.011Z,64.80
2018-07-07T05:15:33.063Z,64.60
2018-07-07T05:18:01.777Z,64.10
2018-07-07T05:20:30.461Z,63.60
2018-07-07T05:22:59.191Z,62.80
2018-07-07T05:25:34.561Z,63.90
2018-07-07T05:28:03.288Z,62.50
2018-07-07T05:30:32.082Z,61.30
2018-07-07T05:33:00.767Z,59.00
2018-07-07T05:35:29.458Z,57.10
2018-07-07T05:37:58.178Z,55.10
2018-07-07T05:40:27.031Z,55.20
2018-07-07T05:42:55.843Z,56.70
2018-07-07T05:45:24.578Z,57.30
2018-07-07T05:47:53.360Z,58.90
2018-07-07T05:50:22.097Z,59.00
2018-07-07T05:52:50.821Z,60.30
2018-07-07T05:55:19.557Z,60.00
2018-07-07T05:57:48.357Z,59.40
2018-07-07T06:00:17.144Z,58.80
2018-07-07T06:02:45.836Z,54.80
2018-07-07T06:05:14.728Z,53.20
2018-07-07T06:07:43.476Z,51.90
2018-07-07T06:10:12.187Z,51.10
2018-07-07T06:12:40.934Z,49.90
2018-07-07T06:15:09.886Z,49.10
2018-07-07T06:17:38.668Z,49.20
2018-07-07T06:20:07.402Z,48.50
2018-07-07T06:22:36.191Z,48.30
2018-07-07T06:25:04.911Z,48.00
2018-07-07T06:27:33.674Z,48.20
2018-07-07T06:30:02.408Z,47.30
2018-07-07T06:32:31.105Z,45.80
2018-07-07T06:34:59.832Z,46.60
2018-07-07T06:37:28.499Z,44.60
2018-07-07T06:39:57.204Z,44.90
2018-07-07T06:42:25.901Z,44.50
2018-07-07T06:44:54.587Z,43.50
2018-07-07T06:47:23.288Z,42.30
2018-07-07T06:49:51.936Z,41.80
2018-07-07T06:52:20.658Z,41.40
2018-07-07T06:54:49.358Z,39.40
2018-07-07T06:57:18.018Z,40.10
2018-07-07T06:59:46.967Z,37.80
2018-07-07T07:02:15.633Z,39.20
2018-07-07T07:04:44.313Z,37.80
2018-07-07T07:07:12.992Z,39.10
2018-07-07T07:09:41.713Z,38.80
2018-07-07T07:12:10.427Z,38.40
2018-07-07T07:14:39.149Z,37.50
2018-07-07T07:17:07.878Z,38.30
2018-07-07T07:19:36.620Z,37.90
2018-07-07T07:22:05.473Z,35.50
2018-07-07T07:24:34.209Z,34.50
2018-07-07T07:27:02.907Z,33.80
2018-07-07T07:29:31.599Z,32.90
2018-07-07T07:32:00.304Z,33.70
2018-07-07T07:34:29.014Z,35.80
2018-07-07T07:36:57.747Z,34.70
2018-07-07T07:39:26.439Z,32.90
2018-07-07T07:41:55.137Z,32.40
2018-07-07T07:44:23.806Z,33.40
2018-07-07T07:46:52.472Z,33.70
2018-07-07T07:49:21.106Z,34.00
2018-07-07T07:51:56.424Z,35.30
2018-07-07T07:56:53.790Z,33.60
2018-07-07T07:59:22.526Z,34.30
2018-07-07T08:01:51.192Z,30.90
2018-07-07T08:04:19.904Z,33.80
2018-07-07T08:06:48.561Z,32.10
2018-07-07T08:09:17.264Z,32.30
2018-07-07T08:11:45.896Z,32.40
2018-07-07T08:14:14.636Z,32.50
2018-07-07T08:16:43.348Z,31.70
2018-07-07T08:19:12.088Z,31.70
2018-07-07T08:21:40.808Z,33.10
2018-07-07T08:24:09.532Z,32.10
2018-07-07T08:26:38.273Z,33.40
2018-07-07T08:29:06.935Z,31.70
2018-07-07T08:31:35.608Z,31.30
2018-07-07T08:34:04.380Z,31.50
2018-07-07T08:36:33.163Z,31.00
2018-07-07T08:39:01.769Z,31.90
2018-07-07T08:41:30.460Z,32.50
2018-07-07T08:43:59.174Z,31.60
2018-07-07T08:46:27.871Z,30.30
2018-07-07T08:48:56.848Z,30.60
2018-07-07T08:51:25.700Z,30.40
2018-07-07T08:53:54.466Z,30.50
2018-07-07T08:56:23.778Z,29.50
2018-07-07T08:58:52.893Z,29.00
2018-07-07T09:01:21.750Z,29.50
2018-07-07T09:03:50.478Z,29.80
2018-07-07T09:06:19.207Z,30.00
2018-07-07T09:08:48.036Z,31.10
2018-07-07T09:11:16.804Z,30.00
2018-07-07T09:13:45.732Z,30.10
2018-07-07T09:16:14.523Z,29.70
2018-07-07T09:18:43.339Z,29.00
2018-07-07T09:21:12.035Z,28.80
2018-07-07T09:23:40.934Z,28.60
2018-07-07T09:26:09.719Z,27.80
2018-07-07T09:28:38.771Z,29.30
2018-07-07T09:31:09.404Z,29.60
2018-07-07T09:33:38.361Z,28.70
2018-07-07T09:36:07.516Z,29.10
2018-07-07T09:38:36.277Z,28.40
2018-07-07T09:41:05.183Z,27.90
2018-07-07T09:43:34.214Z,29.50
2018-07-07T09:46:03.540Z,29.40
2018-07-07T09:48:32.246Z,28.10
2018-07-07T09:51:00.928Z,29.00
2018-07-07T09:53:29.633Z,28.70
2018-07-07T09:55:58.355Z,28.60
2018-07-07T09:58:27.110Z,29.00
2018-07-07T10:00:55.787Z,28.30
2018-07-07T10:03:24.466Z,28.50
2018-07-07T10:05:53.569Z,28.90
2018-07-07T10:08:22.607Z,29.20
2018-07-07T10:10:51.664Z,29.20
2018-07-07T10:13:20.376Z,29.00
2018-07-07T10:15:49.110Z,29.30
2018-07-07T10:18:17.798Z,28.40
2018-07-07T10:20:46.593Z,28.30
2018-07-07T10:23:15.197Z,29.60
2018-07-07T10:25:43.852Z,29.40
2018-07-07T10:28:12.535Z,29.30
2018-07-07T10:30:41.173Z,29.50
2018-07-07T10:33:09.910Z,29.80
2018-07-07T10:38:06.939Z,28.60
2018-07-07T10:40:35.627Z,28.70
2018-07-07T10:43:04.352Z,29.60
2018-07-07T10:45:33.142Z,29.60
2018-07-07T10:48:01.801Z,29.30
2018-07-07T10:50:30.543Z,30.00
2018-07-07T10:52:59.294Z,29.20
2018-07-07T10:55:28.370Z,29.70
2018-07-07T10:57:57.016Z,29.60
2018-07-07T11:00:25.714Z,31.00
2018-07-07T11:02:54.516Z,30.70
2018-07-07T11:05:23.162Z,32.10
2018-07-07T11:07:51.851Z,31.40
2018-07-07T11:10:20.604Z,31.60
2018-07-07T11:12:49.357Z,31.30
2018-07-07T11:15:18.006Z,30.20
2018-07-07T11:17:46.711Z,31.30
2018-07-07T11:20:15.413Z,31.40
2018-07-07T11:22:44.106Z,31.20
2018-07-07T11:25:12.840Z,32.20
2018-07-07T11:27:41.522Z,32.50
2018-07-07T11:30:10.208Z,33.90
2018-07-07T11:32:38.884Z,33.60
2018-07-07T11:35:07.551Z,35.10
2018-07-07T11:37:36.335Z,35.00
2018-07-07T11:40:05.035Z,35.00
2018-07-07T11:42:33.815Z,36.00
2018-07-07T11:45:02.506Z,34.60
2018-07-07T11:49:59.517Z,35.00
2018-07-07T11:54:56.544Z,35.10
2018-07-07T11:57:25.191Z,35.10
2018-07-07T11:59:53.896Z,35.70
2018-07-07T12:02:22.539Z,36.20
2018-07-07T12:04:51.256Z,37.00
2018-07-07T12:07:19.959Z,36.70
2018-07-07T12:09:48.659Z,36.60
2018-07-07T12:12:17.351Z,37.30
2018-07-07T12:14:46.019Z,37.50
2018-07-07T12:17:14.738Z,36.50
2018-07-07T12:19:43.412Z,35.90
2018-07-07T12:22:12.347Z,36.40
2018-07-07T12:24:41.015Z,35.50
2018-07-07T12:27:09.792Z,35.90
2018-07-07T12:29:38.493Z,35.90
2018-07-07T12:32:07.422Z,36.00
2018-07-07T12:34:36.131Z,35.50
2018-07-07T12:37:04.829Z,36.80
2018-07-07T12:39:33.552Z,37.10
2018-07-07T12:42:02.258Z,37.30
2018-07-07T12:44:30.968Z,36.20
2018-07-07T12:46:59.638Z,37.00
2018-07-07T12:51:56.775Z,36.50
2018-07-07T12:54:25.530Z,37.00
2018-07-07T12:56:54.271Z,36.40
2018-07-07T12:59:23.009Z,36.80
2018-07-07T13:01:51.672Z,37.10
2018-07-07T13:04:20.482Z,36.80
2018-07-07T13:06:49.294Z,36.30
2018-07-07T13:09:18.038Z,37.30
2018-07-07T13:11:46.821Z,36.90
2018-07-07T13:14:15.542Z,37.10
2018-07-07T13:16:44.273Z,36.90
2018-07-07T13:19:13.077Z,37.50
2018-07-07T13:21:41.825Z,36.50
2018-07-07T13:24:10.541Z,36.10
2018-07-07T13:26:39.331Z,37.20
2018-07-07T13:29:08.064Z,37.10
2018-07-07T13:34:05.199Z,36.70
2018-07-07T13:36:33.958Z,36.50
2018-07-07T13:39:02.704Z,37.10
2018-07-07T13:41:31.359Z,36.90
2018-07-07T13:44:00.031Z,36.30
2018-07-07T13:46:28.837Z,37.10
2018-07-07T13:48:57.620Z,36.90
2018-07-07T13:51:26.325Z,38.20
2018-07-07T13:54:01.678Z,35.70
2018-07-07T13:56:30.358Z,37.20
2018-07-07T14:01:27.372Z,36.50
2018-07-07T14:03:56.079Z,35.50
2018-07-07T14:06:24.838Z,35.60
2018-07-07T14:08:53.512Z,36.20
2018-07-07T14:11:22.251Z,35.90
2018-07-07T14:13:50.935Z,35.40
2018-07-07T14:16:19.730Z,36.50
2018-07-07T14:18:48.577Z,36.00
2018-07-07T14:21:17.497Z,36.30
2018-07-07T14:23:46.230Z,35.40
2018-07-07T14:26:15.000Z,36.10
2018-07-07T14:28:43.702Z,36.90
2018-07-07T14:31:12.383Z,36.80
2018-07-07T14:33:41.046Z,36.00
2018-07-07T14:36:09.767Z,35.50
2018-07-07T14:38:38.843Z,36.40
2018-07-07T14:41:15.119Z,36.00
2018-07-07T14:43:52.391Z,35.30
2018-07-07T14:46:21.607Z,36.00
2018-07-07T14:48:50.396Z,35.10
2018-07-07T14:51:19.211Z,33.90
2018-07-07T14:53:48.071Z,34.10
2018-07-07T14:56:18.066Z,35.40
2018-07-07T14:58:46.814Z,35.00
2018-07-07T15:01:15.544Z,35.30
2018-07-07T15:03:44.333Z,34.30
2018-07-07T15:06:13.076Z,35.00
2018-07-07T15:08:41.801Z,35.10
2018-07-07T15:11:10.899Z,35.00
2018-07-07T15:13:39.636Z,34.20
2018-07-07T15:16:08.351Z,34.60
2018-07-07T15:18:37.415Z,34.40
2018-07-07T15:21:06.171Z,34.40
2018-07-07T15:23:34.872Z,34.30
2018-07-07T15:26:03.586Z,35.00
2018-07-07T15:28:32.275Z,33.60
2018-07-07T15:31:01.039Z,33.80
2018-07-07T15:33:29.751Z,33.00
2018-07-07T15:35:58.423Z,34.40
2018-07-07T15:38:27.175Z,34.10
2018-07-07T15:40:55.831Z,34.00
2018-07-07T15:43:24.485Z,34.70
2018-07-07T15:45:53.268Z,35.00
2018-07-07T15:48:21.960Z,35.10
2018-07-07T15:50:50.654Z,34.70
2018-07-07T15:53:19.438Z,34.30
2018-07-07T15:55:48.358Z,35.30
2018-07-07T15:58:17.074Z,35.40
2018-07-07T16:00:45.772Z,34.90
2018-07-07T16:03:14.566Z,34.90
2018-07-07T16:05:43.220Z,34.80
2018-07-07T16:08:12.003Z,34.80
2018-07-07T16:10:40.654Z,34.40
2018-07-07T16:13:09.378Z,34.20
2018-07-07T16:15:38.087Z,34.10
2018-07-07T16:18:06.850Z,34.60
2018-07-07T16:23:03.917Z,34.60
2018-07-07T16:25:32.683Z,34.50
2018-07-07T16:28:01.344Z,34.40
2018-07-07T16:30:30.090Z,33.80
2018-07-07T16:33:05.161Z,33.80
2018-07-07T16:35:33.851Z,34.80
2018-07-07T16:38:02.594Z,34.40
2018-07-07T16:40:31.340Z,35.40
2018-07-07T16:43:01.100Z,35.70
2018-07-07T16:45:29.976Z,35.90
2018-07-07T16:47:59.033Z,35.30
2018-07-07T16:50:27.962Z,35.50
2018-07-07T16:52:56.783Z,35.00
2018-07-07T16:55:25.855Z,35.30
2018-07-07T16:57:54.656Z,36.30
2018-07-07T17:00:23.394Z,36.20
2018-07-07T17:02:52.541Z,34.90
2018-07-07T17:05:21.367Z,36.20
2018-07-07T17:07:50.360Z,36.10
2018-07-07T17:12:48.276Z,35.70
2018-07-07T17:15:17.042Z,35.80
2018-07-07T17:17:45.788Z,36.20
2018-07-07T17:20:14.562Z,37.10
2018-07-07T17:22:43.767Z,38.10
2018-07-07T17:25:13.466Z,37.60
2018-07-07T17:27:42.778Z,38.00
2018-07-07T17:30:11.592Z,37.90
2018-07-07T17:32:40.709Z,38.40
2018-07-07T17:35:09.485Z,38.20
2018-07-07T17:37:38.342Z,38.60
2018-07-07T17:40:07.498Z,39.80
2018-07-07T17:42:36.209Z,40.60
2018-07-07T17:45:05.046Z,40.10
2018-07-07T17:47:33.791Z,39.80
2018-07-07T17:50:03.458Z,39.60
2018-07-07T17:52:33.663Z,40.00
2018-07-07T17:55:04.574Z,40.00
2018-07-07T17:57:33.351Z,40.30
2018-07-07T18:00:02.123Z,40.90
2018-07-07T18:04:59.882Z,41.80
2018-07-07T18:07:28.963Z,42.20
2018-07-07T18:09:57.648Z,42.80
2018-07-07T18:12:54.130Z,42.50
2018-07-07T18:15:22.835Z,43.20
2018-07-07T18:17:51.685Z,43.30
2018-07-07T18:20:20.421Z,43.20
2018-07-07T18:22:49.218Z,43.20
2018-07-07T18:25:18.112Z,43.70
2018-07-07T18:27:47.027Z,44.20
2018-07-07T18:30:16.004Z,44.80
2018-07-07T18:32:44.954Z,44.40
2018-07-07T18:35:14.622Z,45.00
2018-07-07T18:37:43.625Z,45.40
2018-07-07T18:40:12.296Z,45.60
2018-07-07T18:42:40.989Z,46.30
2018-07-07T18:45:09.781Z,46.50
2018-07-07T18:47:38.473Z,46.70
2018-07-07T18:50:07.173Z,46.80
2018-07-07T18:52:35.870Z,47.10
2018-07-07T18:55:04.626Z,47.40
2018-07-07T18:57:33.323Z,48.30
2018-07-07T19:00:02.041Z,48.00
2018-07-07T19:02:30.734Z,49.10
2018-07-07T19:04:59.483Z,48.60
2018-07-07T19:07:28.233Z,48.50
2018-07-07T19:09:56.949Z,48.70
2018-07-07T19:12:25.672Z,49.50
2018-07-07T19:14:58.546Z,50.50
2018-07-07T19:17:27.356Z,49.80
2018-07-07T19:19:56.059Z,51.10
2018-07-07T19:22:30.117Z,51.20
2018-07-07T19:25:04.978Z,52.40
2018-07-07T19:27:33.918Z,53.00
2018-07-07T19:30:10.184Z,52.70
2018-07-07T19:32:46.220Z,52.30
2018-07-07T19:35:20.550Z,51.90
2018-07-07T19:37:49.446Z,51.10
2018-07-07T19:40:18.802Z,51.40
2018-07-07T19:42:49.215Z,51.60
2018-07-07T19:45:17.926Z,52.30
2018-07-07T19:47:46.670Z,52.30
2018-07-07T19:50:15.658Z,52.60
2018-07-07T19:52:45.963Z,52.70
2018-07-07T19:55:16.040Z,53.10
2018-07-07T19:57:45.078Z,53.70
2018-07-07T20:00:14.238Z,54.40
2018-07-07T20:02:43.347Z,53.70
2018-07-07T20:05:12.624Z,53.70
2018-07-07T20:07:41.741Z,54.30
2018-07-07T20:10:10.830Z,54.40
2018-07-07T20:12:39.900Z,55.30
2018-07-07T20:15:08.889Z,55.70
2018-07-07T20:18:14.659Z,55.80
2018-07-07T20:21:57.974Z,56.10
2018-07-07T20:24:31.422Z,55.60
2018-07-07T20:27:05.827Z,56.00
2018-07-07T20:29:35.009Z,55.60
2018-07-07T20:32:08.216Z,56.90
2018-07-07T20:34:37.245Z,55.70
2018-07-07T20:37:06.143Z,56.50
2018-07-07T20:39:34.940Z,56.30
2018-07-07T20:42:03.833Z,56.20
2018-07-07T20:44:32.585Z,57.30
2018-07-07T20:47:01.344Z,58.60
2018-07-07T20:49:30.047Z,60.30
2018-07-07T20:51:58.726Z,60.50
2018-07-07T20:54:27.449Z,61.60
2018-07-07T20:56:56.219Z,62.40
2018-07-07T20:59:24.946Z,63.30
2018-07-07T21:01:53.765Z,64.50
2018-07-07T21:04:22.684Z,66.00
2018-07-07T21:06:51.442Z,66.00
2018-07-07T21:09:21.023Z,67.20
2018-07-07T21:11:50.171Z,67.90
2018-07-07T21:14:19.130Z,68.10
2018-07-07T21:16:48.115Z,69.10
2018-07-07T21:19:16.919Z,69.40
2018-07-07T21:21:45.696Z,69.70
2018-07-07T21:24:14.644Z,70.00
2018-07-07T21:26:43.585Z,70.40
2018-07-07T21:29:12.574Z,70.60
2018-07-07T21:31:41.561Z,71.30
2018-07-07T21:34:10.572Z,70.30
2018-07-07T21:36:40.186Z,70.20
2018-07-07T21:39:08.955Z,71.30
2018-07-07T21:41:37.979Z,71.40
2018-07-07T21:44:06.932Z,71.70
2018-07-07T21:46:36.000Z,71.80
2018-07-07T21:49:04.987Z,71.30
2018-07-07T21:51:34.178Z,70.80
2018-07-07T21:54:03.763Z,70.20
2018-07-07T21:56:33.141Z,69.80
2018-07-07T21:59:07.219Z,69.50
2018-07-07T22:10:39.018Z,70.00
2018-07-07T22:13:08.079Z,69.70
2018-07-07T22:15:36.780Z,72.90
2018-07-07T22:20:36.531Z,74.30
2018-07-07T22:23:05.895Z,75.00
2018-07-07T22:25:35.251Z,75.20
2018-07-07T22:28:04.255Z,75.80
2018-07-07T22:30:33.027Z,76.60
2018-07-07T22:33:07.509Z,77.30
2018-07-07T22:35:41.596Z,76.90
2018-07-07T22:38:16.093Z,76.40
2018-07-07T22:40:45.161Z,76.30
2018-07-07T22:43:13.880Z,76.50
2018-07-07T22:45:42.618Z,76.60
2018-07-07T22:48:11.275Z,76.50
2018-07-07T22:50:40.048Z,77.20
2018-07-07T22:53:08.725Z,77.60
2018-07-07T22:55:37.430Z,77.90
2018-07-07T22:58:06.142Z,78.80
2018-07-07T23:00:35.917Z,79.40
2018-07-07T23:03:05.079Z,79.50
2018-07-07T23:05:33.781Z,80.40
2018-07-07T23:08:02.550Z,80.60
2018-07-07T23:10:31.721Z,81.30
2018-07-07T23:13:00.477Z,81.50
2018-07-07T23:15:29.203Z,81.70
2018-07-07T23:17:57.905Z,81.80
2018-07-07T23:20:26.590Z,82.90
2018-07-07T23:22:55.855Z,82.60
2018-07-07T23:25:24.617Z,82.60
2018-07-07T23:27:53.362Z,83.20
2018-07-07T23:30:22.376Z,82.80
2018-07-07T23:32:51.653Z,83.80
2018-07-07T23:35:20.507Z,83.70
2018-07-07T23:37:49.246Z,84.50
2018-07-07T23:40:17.974Z,84.60
2018-07-07T23:42:46.727Z,84.60
2018-07-07T23:45:15.412Z,84.00
2018-07-07T23:47:44.146Z,84.20
2018-07-07T23:50:12.863Z,84.80
2018-07-07T23:52:41.620Z,84.90
2018-07-07T23:55:10.420Z,84.90
2018-07-07T23:57:39.103Z,84.70
